createdAt,value
2019-03-03T00:00:42.587Z,49.5
2019-03-03T00:05:29.489Z,51.5
2019-03-03T00:10:17.620Z,51.1
2019-03-03T00:17:57.745Z,47.5
2019-03-03T00:22:45.011Z,52.6
2019-03-03T00:27:31.984Z,53.8
2019-03-03T00:32:18.818Z,58.6
2019-03-03T00:37:05.591Z,58.9
2019-03-03T00:43:57.492Z,55.4
2019-03-03T00:48:44.472Z,52.8
2019-03-03T00:53:31.454Z,50.1
2019-03-03T00:58:19.107Z,54.6
2019-03-03T01:03:06.813Z,55.3
2019-03-03T01:10:02.219Z,47.7
2019-03-03T01:14:49.124Z,51.3
2019-03-03T01:19:36.806Z,50.8
2019-03-03T01:24:24.200Z,53.7
2019-03-03T01:33:53.826Z,52
2019-03-03T01:38:43.063Z,51.4
2019-03-03T01:43:30.523Z,50
2019-03-03T01:48:18.404Z,51.6
2019-03-03T01:58:01.985Z,50.4
2019-03-03T02:02:48.828Z,52.5
2019-03-03T02:07:36.265Z,55.5
2019-03-03T02:12:23.848Z,56.4
2019-03-03T02:19:49.568Z,51.4
2019-03-03T02:24:36.612Z,54
2019-03-03T02:29:23.855Z,53.4
2019-03-03T02:34:10.792Z,56.3
2019-03-03T02:38:58.221Z,58.6
2019-03-03T02:44:17.294Z,54.1
2019-03-03T02:49:04.671Z,50.6
2019-03-03T02:53:51.601Z,51
2019-03-03T02:58:39.422Z,52.4
2019-03-03T03:03:26.195Z,57.5
2019-03-03T03:09:16.459Z,51.4
2019-03-03T03:14:03.263Z,52.8
2019-03-03T03:18:50.407Z,48.3
2019-03-03T03:23:38.063Z,56.4
2019-03-03T03:28:25.348Z,53.2
2019-03-03T03:33:27.758Z,49.6
2019-03-03T03:38:14.898Z,48.9
2019-03-03T03:43:04.008Z,51.3
2019-03-03T03:47:51.467Z,53.6
2019-03-03T03:57:40.036Z,48.3
2019-03-03T04:02:27.255Z,48.6
2019-03-03T04:07:15.414Z,52.5
2019-03-03T04:12:02.244Z,55.3
2019-03-03T04:20:12.712Z,50.1
2019-03-03T04:25:00.364Z,41.3
2019-03-03T04:29:47.133Z,48.5
2019-03-03T04:34:34.054Z,53.2
2019-03-03T04:43:14.612Z,48.4
2019-03-03T04:48:02.003Z,49.2
2019-03-03T04:52:48.941Z,52
2019-03-03T04:57:36.682Z,50.5
2019-03-03T05:05:47.815Z,49.2
2019-03-03T05:10:36.467Z,44.7
2019-03-03T05:15:23.744Z,51.2
2019-03-03T05:20:11.007Z,49.4
2019-03-03T05:27:27.206Z,46
2019-03-03T05:32:15.288Z,47.5
2019-03-03T05:37:02.282Z,49.7
2019-03-03T05:41:50.209Z,49
2019-03-03T05:47:55.067Z,48.7
2019-03-03T05:52:41.936Z,51.6
2019-03-03T05:57:29.086Z,41.7
2019-03-03T06:02:17.424Z,48.6
2019-03-03T06:07:05.234Z,41.4
2019-03-03T06:11:54.627Z,42.8
2019-03-03T06:16:41.624Z,66.9
2019-03-03T06:21:28.435Z,62
2019-03-03T06:27:19.347Z,37.5
2019-03-03T06:32:06.198Z,47.2
2019-03-03T06:36:54.210Z,46.7
2019-03-03T06:41:41.633Z,49.1
2019-03-03T06:46:45.110Z,43.2
2019-03-03T06:51:32.985Z,44.3
2019-03-03T06:56:20.346Z,43.6
2019-03-03T07:01:07.356Z,47.4
2019-03-03T07:06:25.700Z,41.9
2019-03-03T07:11:13.691Z,42.5
2019-03-03T07:16:01.158Z,49.2
2019-03-03T07:23:56.997Z,39.1
2019-03-03T07:28:44.974Z,41.8
2019-03-03T07:33:32.175Z,44
2019-03-03T07:42:13.906Z,43.3
2019-03-03T07:47:01.180Z,74
2019-03-03T07:51:48.183Z,51
2019-03-03T08:00:13.994Z,45.8
2019-03-03T08:05:00.828Z,55.2
2019-03-03T08:09:48.177Z,47.7
2019-03-03T08:17:13.115Z,35.6
2019-03-03T08:22:00.213Z,37.7
2019-03-03T08:26:48.248Z,42.2
2019-03-03T08:33:56.552Z,33.6
2019-03-03T08:38:43.799Z,35
2019-03-03T08:43:31.041Z,39.4
2019-03-03T08:50:30.146Z,34.1
2019-03-03T08:55:18.066Z,33.8
2019-03-03T09:00:05.224Z,35
2019-03-03T09:06:58.275Z,31
2019-03-03T09:11:45.527Z,31.3
2019-03-03T09:16:32.298Z,28.7
2019-03-03T09:23:09.123Z,30.4
2019-03-03T09:27:57.294Z,40.2
2019-03-03T09:32:45.210Z,31
2019-03-03T09:40:28.458Z,25.8
2019-03-03T09:45:15.970Z,30.5
2019-03-03T09:50:03.568Z,27.2
2019-03-03T09:56:24.870Z,21.1
2019-03-03T10:01:12.527Z,28.1
2019-03-03T10:05:59.993Z,20.8
2019-03-03T10:13:59.891Z,18.5
2019-03-03T10:18:46.794Z,17.3
2019-03-03T10:23:35.945Z,19.1
2019-03-03T10:30:27.817Z,15.6
2019-03-03T10:35:15.140Z,16.3
2019-03-03T10:40:02.433Z,14.9
2019-03-03T10:45:51.672Z,13.9
2019-03-03T10:50:39.415Z,14.2
2019-03-03T10:55:26.293Z,14.8
2019-03-03T11:02:49.063Z,12.9
2019-03-03T11:07:36.378Z,13.5
2019-03-03T11:12:24.606Z,13.5
2019-03-03T11:17:12.688Z,14.4
2019-03-03T11:21:59.594Z,12
2019-03-03T11:26:47.683Z,13.3
2019-03-03T11:31:34.997Z,13.4
2019-03-03T11:39:59.628Z,11.7
2019-03-03T11:44:47.491Z,11.6
2019-03-03T11:49:34.629Z,12.1
2019-03-03T11:55:54.779Z,14
2019-03-03T12:00:41.668Z,14.3
2019-03-03T12:05:29.596Z,11.8
2019-03-03T12:13:40.829Z,14.8
2019-03-03T12:18:27.935Z,12.5
2019-03-03T12:23:17.216Z,11.8
2019-03-03T12:30:58.162Z,13.2
2019-03-03T12:35:45.683Z,10.9
2019-03-03T12:40:32.653Z,13.5
2019-03-03T12:47:09.877Z,9.9
2019-03-03T12:51:56.982Z,12.1
2019-03-03T13:01:26.159Z,12.9
2019-03-03T13:06:23.886Z,12
2019-03-03T13:11:12.036Z,12.3
2019-03-03T13:15:58.899Z,11.3
2019-03-03T13:20:48.479Z,11.6
2019-03-03T13:29:32.306Z,11.6
2019-03-03T13:34:19.422Z,11.3
2019-03-03T13:43:15.776Z,12.8
2019-03-03T13:48:03.316Z,9.7
2019-03-03T13:57:17.038Z,12.6
2019-03-03T14:02:03.778Z,12.6
2019-03-03T14:06:51.691Z,14.2
2019-03-03T14:13:27.807Z,13
2019-03-03T14:18:15.671Z,12.6
2019-03-03T14:26:58.038Z,11.1
2019-03-03T14:31:45.209Z,27.3
2019-03-03T14:40:30.066Z,11.4
2019-03-03T14:45:16.831Z,12.6
2019-03-03T14:53:11.081Z,10.8
2019-03-03T14:57:58.272Z,13.7
2019-03-03T15:02:45.995Z,10.9
2019-03-03T15:07:33.320Z,11.5
2019-03-03T15:12:21.352Z,12.1
2019-03-03T15:20:17.259Z,12.3
2019-03-03T15:25:05.193Z,16.3
2019-03-03T15:34:31.023Z,12.7
2019-03-03T15:39:18.920Z,13
2019-03-03T15:48:35.937Z,15.7
2019-03-03T15:53:23.791Z,14.5
2019-03-03T16:03:26.133Z,15.1
2019-03-03T16:08:13.518Z,12.3
2019-03-03T16:13:03.684Z,13.5
2019-03-03T16:20:42.989Z,15.6
2019-03-03T16:25:30.869Z,14.4
2019-03-03T16:30:18.147Z,13.3
2019-03-03T16:35:21.155Z,14.3
2019-03-03T16:40:09.062Z,16.5
2019-03-03T16:49:38.578Z,17.5
2019-03-03T16:54:25.553Z,15
2019-03-03T16:59:12.693Z,16.2
2019-03-03T17:06:51.472Z,22.3
2019-03-03T17:11:38.516Z,12.9
2019-03-03T17:16:25.832Z,16.9
2019-03-03T17:21:12.867Z,16.5
2019-03-03T17:25:59.758Z,18.4
2019-03-03T17:35:31.276Z,15
2019-03-03T17:40:18.477Z,15.6
2019-03-03T17:45:06.480Z,16.5
2019-03-03T17:53:01.678Z,16.3
2019-03-03T17:57:48.898Z,15.6
2019-03-03T18:02:36.520Z,17.5
2019-03-03T18:07:41.864Z,16.8
2019-03-03T18:12:29.187Z,17.4
2019-03-03T18:17:17.286Z,17.2
2019-03-03T18:22:35.693Z,16.6
2019-03-03T18:27:22.977Z,14
2019-03-03T18:37:09.527Z,16.4
2019-03-03T18:41:56.670Z,20.5
2019-03-03T18:51:29.567Z,19.1
2019-03-03T18:56:16.380Z,19.1
2019-03-03T19:05:59.659Z,17.6
2019-03-03T19:10:47.050Z,17.6
2019-03-03T19:15:34.506Z,17.1
2019-03-03T19:21:08.923Z,13.6
2019-03-03T19:25:56.350Z,16.4
2019-03-03T19:35:11.669Z,17.4
2019-03-03T19:39:58.489Z,17.5
2019-03-03T19:44:46.447Z,17.7
2019-03-03T19:49:50.496Z,16
2019-03-03T19:54:37.871Z,16.4
2019-03-03T20:03:59.904Z,19.8
2019-03-03T20:08:47.743Z,17.1
2019-03-03T20:18:19.617Z,16.8
2019-03-03T20:23:06.634Z,13.3
2019-03-03T20:27:55.441Z,16.8
2019-03-03T20:32:58.847Z,15.2
2019-03-03T20:37:45.649Z,14.6
2019-03-03T20:42:33.350Z,19.2
2019-03-03T20:47:52.055Z,15.8
2019-03-03T20:52:39.927Z,14.7
2019-03-03T21:01:55.233Z,15.4
2019-03-03T21:06:42.582Z,14.4
2019-03-03T21:16:13.548Z,15.5
2019-03-03T21:21:01.241Z,15.6
2019-03-03T21:25:48.519Z,13.9
2019-03-03T21:31:08.097Z,14.3
2019-03-03T21:35:55.193Z,13.2
2019-03-03T21:45:26.062Z,13.3
2019-03-03T21:50:13.244Z,15.9
2019-03-03T21:59:12.651Z,14.6
2019-03-03T22:04:00.675Z,14.3
2019-03-03T22:08:49.170Z,14.8
2019-03-03T22:14:38.438Z,14.6
2019-03-03T22:19:25.707Z,13.8
2019-03-03T22:24:12.687Z,15
2019-03-03T22:31:35.982Z,14.7
2019-03-03T22:36:22.843Z,17.8
2019-03-03T22:41:09.708Z,14.1
2019-03-03T22:46:12.902Z,13.3
2019-03-03T22:50:59.747Z,14
2019-03-03T23:00:27.623Z,12.4
2019-03-03T23:05:15.401Z,11.3
2019-03-03T23:10:04.514Z,13
2019-03-03T23:17:14.302Z,11.6
2019-03-03T23:22:01.175Z,13.9
2019-03-03T23:26:48.682Z,13.2
2019-03-03T23:32:07.883Z,14.2
2019-03-03T23:36:54.909Z,11.7
2019-03-03T23:41:42.206Z,13.1
2019-03-03T23:47:00.157Z,12.9
2019-03-03T23:51:47.966Z,14.4
2019-03-03T23:56:34.974Z,13.7
